PDT5942 KSYR-KPHL
Flight info
| Callsign | PDT5942 |
|---|---|
| Flight time | N/A |
| Altitude | 33000 |
| Route | SYR PTAKI LVZ SPUDS7 |
| Aircraft | E145/M-SDFGIRW/S |
Departure
| Time | 2026-05-05 00:43 |
|---|---|
| Airport | Syracuse Hancock International Airport (KSYR) |
Arrival
| Time | N/A |
|---|---|
| Airport | Philadelphia International Airport (KPHL) |
| Time | Latitude | Longitude | Altitude | Speed | Heading |
|---|---|---|---|---|---|
| 2026-05-05 00:21 | 43.11252 | -76.10945 | 420 ft | 0 kts | 357° |
| 2026-05-05 00:35 | 43.11253 | -76.10945 | 420 ft | 0 kts | 357° |
| 2026-05-05 00:35 | 43.11250 | -76.10944 | 421 ft | 2 kts | 357° |
| 2026-05-05 00:35 | 43.11235 | -76.10944 | 420 ft | 2 kts | 5° |
| 2026-05-05 00:35 | 43.11221 | -76.10951 | 421 ft | 2 kts | 41° |
| 2026-05-05 00:36 | 43.11212 | -76.10968 | 421 ft | 2 kts | 74° |
| 2026-05-05 00:36 | 43.11211 | -76.10980 | 421 ft | 0 kts | 88° |
| 2026-05-05 00:38 | 43.11211 | -76.10979 | 420 ft | 0 kts | 88° |
| 2026-05-05 00:38 | 43.11211 | -76.10969 | 420 ft | 4 kts | 87° |
| 2026-05-05 00:38 | 43.11214 | -76.10912 | 420 ft | 6 kts | 86° |
| 2026-05-05 00:39 | 43.11215 | -76.10896 | 420 ft | 0 kts | 84° |
| 2026-05-05 00:39 | 43.11215 | -76.10895 | 420 ft | 0 kts | 84° |
| 2026-05-05 00:39 | 43.11216 | -76.10889 | 420 ft | 0 kts | 83° |
| 2026-05-05 00:39 | 43.11215 | -76.10877 | 420 ft | 4 kts | 96° |
| 2026-05-05 00:40 | 43.11207 | -76.10808 | 420 ft | 9 kts | 99° |
| 2026-05-05 00:40 | 43.11163 | -76.10729 | 418 ft | 12 kts | 172° |
| 2026-05-05 00:40 | 43.11055 | -76.10720 | 418 ft | 17 kts | 167° |
| 2026-05-05 00:40 | 43.11012 | -76.10573 | 415 ft | 20 kts | 88° |
| 2026-05-05 00:41 | 43.11020 | -76.10368 | 414 ft | 22 kts | 88° |
| 2026-05-05 00:41 | 43.11027 | -76.10145 | 411 ft | 24 kts | 84° |
| 2026-05-05 00:41 | 43.11034 | -76.09908 | 409 ft | 26 kts | 88° |
| 2026-05-05 00:41 | 43.11044 | -76.09655 | 407 ft | 27 kts | 89° |
| 2026-05-05 00:42 | 43.11048 | -76.09472 | 404 ft | 11 kts | 87° |
| 2026-05-05 00:42 | 43.11052 | -76.09341 | 404 ft | 15 kts | 90° |
| 2026-05-05 00:42 | 43.10971 | -76.09280 | 402 ft | 17 kts | 210° |
| 2026-05-05 00:42 | 43.10926 | -76.09380 | 403 ft | 0 kts | 268° |
| 2026-05-05 00:43 | 43.10923 | -76.09494 | 404 ft | 44 kts | 267° |
| 2026-05-05 00:43 | 43.10897 | -76.10272 | 411 ft | 115 kts | 268° |
| 2026-05-05 00:43 | 43.10862 | -76.11575 | 627 ft | 146 kts | 266° |
| 2026-05-05 00:43 | 43.10860 | -76.13003 | 1201 ft | 156 kts | 266° |
| 2026-05-05 00:44 | 43.10884 | -76.14476 | 1892 ft | 160 kts | 266° |
| 2026-05-05 00:44 | 43.10912 | -76.16182 | 2038 ft | 205 kts | 267° |
| 2026-05-05 00:44 | 43.10927 | -76.18227 | 2793 ft | 218 kts | 266° |
| 2026-05-05 00:44 | 43.10956 | -76.20205 | 3870 ft | 213 kts | 267° |
| 2026-05-05 00:45 | 43.10982 | -76.22269 | 4519 ft | 221 kts | 266° |
| 2026-05-05 00:45 | 43.10719 | -76.24231 | 5404 ft | 214 kts | 241° |
| 2026-05-05 00:45 | 43.09753 | -76.25799 | 6106 ft | 219 kts | 220° |
| 2026-05-05 00:45 | 43.08514 | -76.26995 | 6870 ft | 222 kts | 215° |
| 2026-05-05 00:46 | 43.07182 | -76.28096 | 7598 ft | 226 kts | 213° |
| 2026-05-05 00:46 | 43.05834 | -76.29152 | 8268 ft | 230 kts | 213° |
| 2026-05-05 00:46 | 43.04431 | -76.30231 | 8999 ft | 232 kts | 213° |
| 2026-05-05 00:46 | 43.03003 | -76.31323 | 9714 ft | 235 kts | 213° |